createdAt,value
2023-03-03T00:01:44.977Z,26.37
2023-03-03T00:04:11.931Z,26.90
2023-03-03T00:06:38.833Z,29.67
2023-03-03T00:09:05.747Z,26.43
2023-03-03T00:11:32.965Z,24.80
2023-03-03T00:13:59.932Z,23.53
2023-03-03T00:16:35.769Z,26.07
2023-03-03T00:19:02.971Z,26.10
2023-03-03T00:21:32.494Z,26.17
2023-03-03T00:24:24.553Z,26.13
2023-03-03T00:26:56.929Z,25.90
2023-03-03T00:29:36.435Z,24.83
2023-03-03T00:32:39.357Z,23.60
2023-03-03T00:35:30.261Z,23.70
2023-03-03T00:38:04.343Z,25.60
2023-03-03T00:40:37.057Z,23.23
2023-03-03T00:43:21.273Z,25.30
2023-03-03T00:45:55.908Z,25.77
2023-03-03T00:48:50.330Z,24.00
2023-03-03T00:51:28.694Z,24.33
2023-03-03T00:53:56.986Z,24.20
2023-03-03T00:56:24.510Z,25.87
2023-03-03T00:58:51.579Z,27.60
2023-03-03T01:01:19.079Z,26.30
2023-03-03T01:03:46.024Z,25.13
2023-03-03T01:06:13.550Z,25.23
2023-03-03T01:08:40.466Z,25.07
2023-03-03T01:11:16.440Z,25.40
2023-03-03T01:13:45.380Z,26.50
2023-03-03T01:16:12.427Z,26.50
2023-03-03T01:18:41.830Z,28.27
2023-03-03T01:21:10.239Z,29.47
2023-03-03T01:23:37.723Z,27.17
2023-03-03T01:26:05.783Z,27.30
2023-03-03T01:28:33.446Z,29.00
2023-03-03T01:31:05.421Z,27.60
2023-03-03T01:33:34.513Z,25.90
2023-03-03T01:36:01.449Z,24.53
2023-03-03T01:38:28.770Z,27.07
2023-03-03T01:41:00.047Z,26.53
2023-03-03T01:43:28.952Z,23.57
2023-03-03T01:46:19.106Z,25.23
2023-03-03T01:48:46.803Z,24.57
2023-03-03T01:51:23.835Z,25.40
2023-03-03T01:53:57.862Z,26.40
2023-03-03T01:56:25.868Z,23.80
2023-03-03T01:59:07.436Z,23.27
2023-03-03T02:01:34.923Z,24.53
2023-03-03T02:04:01.833Z,23.30
2023-03-03T02:06:35.217Z,21.47
2023-03-03T02:09:14.512Z,21.07
2023-03-03T02:11:43.242Z,23.00
2023-03-03T02:14:12.676Z,23.27
2023-03-03T02:16:40.798Z,26.20
2023-03-03T02:19:33.466Z,24.47
2023-03-03T02:22:02.383Z,23.60
2023-03-03T02:24:57.534Z,22.40
2023-03-03T02:27:24.632Z,24.43
2023-03-03T02:29:52.328Z,24.13
2023-03-03T02:32:19.303Z,21.17
2023-03-03T02:34:52.071Z,22.10
2023-03-03T02:37:21.120Z,20.87
2023-03-03T02:39:48.071Z,21.03
2023-03-03T02:42:27.733Z,20.70
2023-03-03T02:44:55.668Z,22.43
2023-03-03T02:47:22.605Z,21.67
2023-03-03T02:49:49.443Z,22.23
2023-03-03T02:52:18.814Z,23.27
2023-03-03T02:54:45.746Z,24.07
2023-03-03T02:57:12.594Z,27.37
2023-03-03T02:59:39.474Z,25.70
2023-03-03T03:02:07.442Z,23.83
2023-03-03T03:04:34.319Z,24.43
2023-03-03T03:07:01.388Z,22.87
2023-03-03T03:09:28.692Z,23.60
2023-03-03T03:11:55.558Z,25.10
2023-03-03T03:14:23.930Z,25.87
2023-03-03T03:16:51.145Z,25.20
2023-03-03T03:19:17.985Z,26.90
2023-03-03T03:21:44.922Z,28.80
2023-03-03T03:24:11.815Z,30.07
2023-03-03T03:26:38.726Z,30.20
2023-03-03T03:29:06.273Z,24.63
2023-03-03T03:31:33.828Z,25.97
2023-03-03T03:34:00.758Z,25.90
2023-03-03T03:36:28.380Z,26.43
2023-03-03T03:38:55.261Z,27.17
2023-03-03T03:41:22.125Z,26.67
2023-03-03T03:43:48.932Z,26.47
2023-03-03T03:46:15.862Z,25.30
2023-03-03T03:48:42.818Z,27.33
2023-03-03T03:51:12.059Z,27.60
2023-03-03T03:53:39.066Z,25.83
2023-03-03T03:56:06.675Z,23.50
2023-03-03T03:58:33.576Z,23.33
2023-03-03T04:01:05.937Z,23.50
2023-03-03T04:03:32.870Z,21.90
2023-03-03T04:05:59.848Z,23.17
2023-03-03T04:08:26.933Z,21.53
2023-03-03T04:10:53.854Z,21.73
2023-03-03T04:13:20.831Z,20.90
2023-03-03T04:15:48.157Z,19.87
2023-03-03T04:18:15.228Z,19.63
2023-03-03T04:20:42.291Z,20.20
2023-03-03T04:23:09.150Z,20.63
2023-03-03T04:25:36.025Z,20.17
2023-03-03T04:28:05.227Z,20.80
2023-03-03T04:30:33.306Z,21.47
2023-03-03T04:33:00.156Z,19.20
2023-03-03T04:35:27.322Z,22.97
2023-03-03T04:37:54.212Z,24.67
2023-03-03T04:40:21.160Z,24.87
2023-03-03T04:42:48.049Z,22.00
2023-03-03T04:45:14.915Z,21.10
2023-03-03T04:47:42.081Z,21.23
2023-03-03T04:50:11.009Z,21.03
2023-03-03T04:52:38.137Z,21.37
2023-03-03T04:55:05.690Z,21.37
2023-03-03T04:57:32.731Z,21.00
2023-03-03T04:59:59.569Z,22.50
2023-03-03T05:02:26.511Z,20.90
2023-03-03T05:04:53.473Z,20.80
2023-03-03T05:07:20.962Z,20.97
2023-03-03T05:09:47.973Z,22.17
2023-03-03T05:12:14.810Z,21.50
2023-03-03T05:14:41.765Z,22.50
2023-03-03T05:17:08.633Z,23.60
2023-03-03T05:19:35.639Z,23.10
2023-03-03T05:22:02.590Z,19.57
2023-03-03T05:24:29.675Z,22.43
2023-03-03T05:26:56.554Z,21.10
2023-03-03T05:29:23.522Z,21.40
2023-03-03T05:31:50.663Z,22.07
2023-03-03T05:34:17.762Z,24.40
2023-03-03T05:36:44.633Z,23.57
2023-03-03T05:39:11.545Z,23.67
2023-03-03T05:41:38.899Z,25.97
2023-03-03T05:44:05.999Z,22.83
2023-03-03T05:46:33.017Z,24.43
2023-03-03T05:48:59.947Z,24.97
2023-03-03T05:51:26.797Z,25.00
2023-03-03T05:53:56.298Z,23.50
2023-03-03T05:56:23.454Z,25.17
2023-03-03T05:58:50.554Z,25.07
2023-03-03T06:01:17.548Z,27.57
2023-03-03T06:03:44.488Z,23.03
2023-03-03T06:06:12.421Z,23.50
2023-03-03T06:08:39.302Z,23.80
2023-03-03T06:11:06.211Z,22.90
2023-03-03T06:13:33.176Z,26.47
2023-03-03T06:16:00.189Z,26.60
2023-03-03T06:18:27.093Z,24.83
2023-03-03T06:20:54.814Z,27.20
2023-03-03T06:23:22.559Z,24.40
2023-03-03T06:25:49.475Z,21.20
2023-03-03T06:28:16.482Z,23.27
2023-03-03T06:30:43.530Z,25.10
2023-03-03T06:33:10.922Z,21.97
2023-03-03T06:35:37.862Z,23.90
2023-03-03T06:38:04.765Z,22.80
2023-03-03T06:40:31.639Z,23.30
2023-03-03T06:42:58.502Z,23.97
2023-03-03T06:45:25.407Z,23.10
2023-03-03T06:47:52.251Z,22.53
2023-03-03T06:50:21.265Z,24.50
2023-03-03T06:52:48.228Z,24.27
2023-03-03T06:55:23.362Z,25.77
2023-03-03T06:57:50.385Z,23.00
2023-03-03T07:00:30.875Z,22.67
2023-03-03T07:03:08.165Z,22.50
2023-03-03T07:05:35.053Z,23.23
2023-03-03T07:08:02.129Z,25.17
2023-03-03T07:10:31.156Z,21.97
2023-03-03T07:13:12.182Z,22.00
2023-03-03T07:15:39.118Z,22.97
2023-03-03T07:18:32.719Z,21.33
2023-03-03T07:21:00.575Z,25.83
2023-03-03T07:23:42.756Z,27.57
2023-03-03T07:26:34.241Z,24.27
2023-03-03T07:29:14.452Z,23.00
2023-03-03T07:31:45.316Z,28.47
2023-03-03T07:34:24.481Z,28.40
2023-03-03T07:36:55.666Z,30.77
2023-03-03T07:39:36.914Z,26.03
2023-03-03T07:42:39.974Z,23.80
2023-03-03T07:45:32.716Z,27.27
2023-03-03T07:48:26.491Z,24.43
2023-03-03T07:50:53.460Z,22.53
2023-03-03T07:53:34.930Z,22.73
2023-03-03T07:56:02.212Z,22.77
2023-03-03T07:58:38.451Z,21.83
2023-03-03T08:01:27.452Z,21.57
2023-03-03T08:03:55.006Z,20.73
2023-03-03T08:06:52.329Z,19.80
2023-03-03T08:09:44.287Z,19.70
2023-03-03T08:12:32.798Z,19.90
2023-03-03T08:15:20.134Z,20.17
2023-03-03T08:17:48.297Z,20.63
2023-03-03T08:20:56.979Z,19.93
2023-03-03T08:23:23.900Z,23.60
2023-03-03T08:25:52.037Z,20.97
2023-03-03T08:28:19.903Z,20.13
2023-03-03T08:30:47.517Z,21.00
2023-03-03T08:33:15.328Z,19.00
2023-03-03T08:35:42.626Z,19.00
2023-03-03T08:38:10.232Z,19.50
2023-03-03T08:40:37.529Z,19.37
2023-03-03T08:43:04.624Z,18.60
2023-03-03T08:45:32.351Z,21.20
2023-03-03T08:48:00.105Z,19.97
2023-03-03T08:50:28.552Z,19.00
2023-03-03T08:52:56.130Z,19.90
2023-03-03T08:55:23.033Z,19.27
2023-03-03T08:57:50.068Z,17.57
2023-03-03T09:00:18.399Z,19.73
2023-03-03T09:02:45.502Z,20.73
2023-03-03T09:05:12.943Z,19.70
2023-03-03T09:07:40.601Z,19.63
2023-03-03T09:10:08.466Z,18.67
2023-03-03T09:12:39.409Z,17.47
2023-03-03T09:15:33.668Z,17.23
2023-03-03T09:18:13.408Z,17.10
2023-03-03T09:20:51.736Z,18.50
2023-03-03T09:23:39.248Z,16.90
2023-03-03T09:26:30.717Z,15.90
2023-03-03T09:29:36.735Z,18.57
2023-03-03T09:32:35.390Z,17.10
2023-03-03T09:35:51.732Z,16.00
2023-03-03T09:38:33.316Z,16.40
2023-03-03T09:41:55.084Z,15.93
2023-03-03T09:45:12.386Z,16.50
2023-03-03T09:48:32.043Z,16.00
2023-03-03T09:51:12.249Z,17.83
2023-03-03T09:58:10.440Z,15.77
2023-03-03T10:01:08.694Z,15.50
2023-03-03T10:06:55.091Z,15.60
2023-03-03T10:10:03.701Z,16.37
2023-03-03T10:16:12.908Z,16.80
2023-03-03T10:18:52.222Z,16.10
2023-03-03T10:21:45.193Z,18.77
2023-03-03T10:24:29.008Z,15.70
2023-03-03T10:27:30.258Z,16.63
2023-03-03T10:30:04.127Z,14.97
2023-03-03T10:32:51.758Z,14.80
2023-03-03T10:36:00.948Z,15.83
2023-03-03T10:39:06.201Z,15.70
2023-03-03T10:45:46.098Z,15.20
2023-03-03T10:48:38.742Z,15.77
2023-03-03T10:51:49.141Z,15.67
2023-03-03T11:31:35.311Z,14.83
2023-03-03T11:34:34.968Z,15.40
2023-03-03T11:37:08.690Z,14.43
2023-03-03T11:39:37.171Z,16.03
2023-03-03T11:42:24.867Z,17.20
2023-03-03T11:44:59.922Z,15.90
2023-03-03T11:47:59.397Z,17.10
2023-03-03T11:51:09.706Z,16.23
2023-03-03T11:54:04.578Z,17.20
2023-03-03T11:56:43.171Z,17.53
2023-03-03T11:59:37.729Z,15.70
2023-03-03T12:02:27.580Z,15.33
2023-03-03T12:05:00.073Z,16.77
2023-03-03T12:07:54.809Z,15.60
2023-03-03T12:10:33.594Z,15.30
2023-03-03T12:13:28.289Z,16.20
2023-03-03T12:16:26.312Z,16.70
2023-03-03T12:19:31.782Z,15.03
2023-03-03T12:23:05.830Z,15.10
2023-03-03T12:25:42.710Z,14.20
2023-03-03T12:28:19.560Z,16.27
2023-03-03T13:00:23.704Z,12.93
2023-03-03T13:06:41.710Z,15.03
2023-03-03T13:09:22.911Z,15.20
2023-03-03T13:12:20.831Z,15.00
2023-03-03T13:21:15.289Z,14.07
2023-03-03T13:24:23.943Z,14.70
2023-03-03T13:27:14.984Z,14.50
2023-03-03T13:29:43.804Z,16.07
2023-03-03T13:32:19.948Z,16.17
2023-03-03T13:35:07.894Z,15.83
2023-03-03T13:37:47.716Z,16.50
2023-03-03T13:40:19.587Z,16.47
2023-03-03T13:42:59.608Z,17.20
2023-03-03T13:45:53.371Z,16.30
2023-03-03T13:52:15.434Z,16.20
2023-03-03T13:55:31.949Z,15.50
2023-03-03T13:58:36.961Z,14.43
2023-03-03T14:01:36.825Z,13.93
2023-03-03T14:04:48.447Z,16.07
2023-03-03T14:07:41.643Z,14.40
2023-03-03T14:10:26.766Z,14.63
2023-03-03T14:13:05.222Z,14.60
2023-03-03T14:15:50.317Z,15.10
2023-03-03T14:19:00.471Z,14.90
2023-03-03T14:21:35.692Z,14.60
2023-03-03T14:24:23.309Z,13.90
2023-03-03T14:26:55.911Z,13.20
2023-03-03T14:29:33.149Z,14.60
2023-03-03T14:32:21.934Z,13.57
2023-03-03T14:34:58.495Z,14.63
2023-03-03T14:37:45.005Z,14.03
2023-03-03T14:40:33.494Z,12.80
2023-03-03T14:43:02.487Z,12.67
2023-03-03T14:45:41.111Z,11.93
2023-03-03T14:48:27.741Z,12.87
2023-03-03T14:51:23.422Z,12.20
2023-03-03T14:53:51.139Z,11.80
2023-03-03T14:56:43.757Z,11.77
2023-03-03T14:59:21.760Z,12.77
2023-03-03T15:01:57.984Z,12.03
2023-03-03T15:04:27.922Z,11.93
2023-03-03T15:06:55.724Z,12.67
2023-03-03T15:09:36.170Z,12.53
2023-03-03T15:12:20.341Z,13.57
2023-03-03T15:14:50.432Z,14.60
2023-03-03T15:17:28.175Z,13.03
2023-03-03T15:20:41.065Z,12.97
2023-03-03T15:23:33.981Z,12.87
2023-03-03T15:26:35.766Z,13.03
2023-03-03T15:29:28.759Z,11.27
2023-03-03T15:32:28.983Z,11.93
2023-03-03T15:35:06.761Z,13.50
2023-03-03T15:37:52.243Z,11.33
2023-03-03T15:40:49.334Z,12.23
2023-03-03T15:43:40.042Z,11.80
2023-03-03T15:46:40.128Z,12.60
2023-03-03T15:49:33.280Z,12.80
2023-03-03T15:52:25.038Z,12.43
2023-03-03T15:55:23.128Z,11.10
2023-03-03T15:58:39.208Z,12.90
2023-03-03T16:01:34.204Z,10.87
2023-03-03T16:04:12.382Z,10.70
2023-03-03T16:06:53.988Z,11.50
2023-03-03T16:10:14.091Z,11.13
2023-03-03T16:13:06.275Z,11.80
2023-03-03T16:15:52.300Z,11.60
2023-03-03T16:19:14.275Z,11.43
2023-03-03T16:22:26.960Z,17.10
2023-03-03T16:28:55.478Z,13.20
2023-03-03T16:31:58.177Z,12.33
2023-03-03T16:34:43.367Z,12.97
2023-03-03T16:37:36.204Z,13.40
2023-03-03T16:40:27.681Z,12.43
2023-03-03T16:43:16.703Z,11.27
2023-03-03T16:45:43.843Z,10.30
2023-03-03T16:48:22.978Z,12.40
2023-03-03T16:51:24.572Z,14.07
2023-03-03T16:54:05.361Z,11.27
2023-03-03T16:56:43.195Z,12.60
2023-03-03T16:59:48.551Z,12.40
2023-03-03T17:02:46.641Z,13.10
2023-03-03T17:06:04.411Z,12.23
2023-03-03T17:09:01.097Z,14.70
2023-03-03T17:12:06.985Z,13.03
2023-03-03T17:15:05.378Z,14.20
2023-03-03T17:21:02.444Z,14.20
2023-03-03T17:23:51.033Z,16.17
2023-03-03T17:33:28.374Z,15.90
2023-03-03T17:36:24.057Z,16.70
2023-03-03T17:39:31.468Z,16.87
2023-03-03T17:42:03.330Z,16.43
2023-03-03T17:44:50.410Z,19.00
2023-03-03T17:48:03.561Z,20.60
2023-03-03T17:50:56.286Z,19.93
2023-03-03T17:53:47.191Z,21.57
2023-03-03T17:56:42.002Z,22.33
2023-03-03T18:00:02.745Z,18.50
2023-03-03T18:03:02.647Z,22.77
2023-03-03T18:06:11.805Z,24.40
2023-03-03T18:36:40.064Z,26.37
2023-03-03T18:39:13.531Z,24.43
2023-03-03T18:42:10.513Z,26.13
2023-03-03T18:44:37.643Z,24.20
2023-03-03T18:47:04.665Z,26.57
2023-03-03T18:49:49.932Z,26.70
2023-03-03T18:52:27.436Z,31.20
2023-03-03T18:55:21.849Z,26.70
2023-03-03T18:58:26.531Z,26.53
2023-03-03T19:01:33.924Z,24.67
2023-03-03T19:04:19.136Z,25.10
2023-03-03T19:07:18.973Z,24.23
2023-03-03T19:09:57.724Z,27.17
2023-03-03T19:13:02.501Z,24.57
2023-03-03T19:15:48.586Z,24.07
2023-03-03T19:18:28.741Z,24.33
2023-03-03T19:21:21.314Z,25.40
2023-03-03T19:24:00.794Z,25.30
2023-03-03T19:26:37.807Z,24.33
2023-03-03T19:30:02.793Z,24.00
2023-03-03T19:33:14.992Z,25.87
2023-03-03T19:36:19.273Z,25.47
2023-03-03T19:42:46.506Z,24.40
2023-03-03T19:45:28.325Z,25.30
2023-03-03T19:48:21.681Z,24.00
2023-03-03T19:51:18.855Z,23.40
2023-03-03T19:57:03.680Z,24.80
2023-03-03T19:59:47.824Z,25.80
2023-03-03T20:05:25.907Z,26.27
2023-03-03T20:08:11.285Z,24.90
2023-03-03T20:11:15.139Z,23.93
2023-03-03T20:20:43.332Z,25.50
2023-03-03T20:23:36.802Z,24.90
2023-03-03T20:26:17.782Z,23.90
2023-03-03T20:29:37.605Z,23.50
2023-03-03T20:32:41.693Z,22.93
2023-03-03T20:35:32.321Z,24.43
2023-03-03T20:38:23.943Z,25.07
2023-03-03T20:41:44.053Z,24.93
2023-03-03T20:45:10.212Z,26.10
2023-03-03T20:48:19.228Z,25.83
2023-03-03T20:51:08.156Z,27.60
2023-03-03T20:53:35.051Z,27.37
2023-03-03T20:56:41.506Z,25.10
2023-03-03T20:59:32.700Z,24.97
2023-03-03T21:02:15.518Z,24.93
2023-03-03T21:04:42.826Z,40.40
2023-03-03T21:07:24.653Z,24.00
2023-03-03T21:10:27.262Z,23.00
2023-03-03T21:12:56.288Z,24.10
2023-03-03T21:15:35.761Z,25.43
2023-03-03T21:18:21.611Z,24.40
2023-03-03T21:20:48.566Z,23.83
2023-03-03T21:23:16.732Z,24.63
2023-03-03T21:25:54.630Z,23.90
2023-03-03T21:28:58.388Z,24.73
2023-03-03T21:31:25.553Z,24.00
2023-03-03T21:33:57.014Z,23.90
2023-03-03T21:36:53.959Z,25.57
2023-03-03T21:39:41.977Z,24.50
2023-03-03T21:42:18.892Z,24.30
2023-03-03T21:44:49.228Z,26.27
2023-03-03T21:47:21.813Z,24.70
2023-03-03T21:49:50.888Z,25.53
2023-03-03T21:52:19.978Z,28.77
2023-03-03T21:54:48.634Z,26.00
2023-03-03T21:57:15.773Z,26.40
2023-03-03T21:59:42.762Z,26.57
2023-03-03T22:02:10.575Z,27.10
2023-03-03T22:04:41.032Z,26.90
2023-03-03T22:07:08.707Z,24.77
2023-03-03T22:09:36.277Z,29.97
2023-03-03T22:12:03.617Z,25.53
2023-03-03T22:14:30.795Z,25.67
2023-03-03T22:16:58.529Z,25.33
2023-03-03T22:19:25.705Z,25.73
2023-03-03T22:21:52.782Z,25.60
2023-03-03T22:24:19.675Z,26.20
2023-03-03T22:26:46.552Z,26.03
2023-03-03T22:29:13.576Z,24.50
2023-03-03T22:31:40.931Z,24.10
2023-03-03T22:34:07.929Z,26.67
2023-03-03T22:36:34.783Z,28.43
2023-03-03T22:39:02.045Z,26.80
2023-03-03T22:41:29.065Z,26.30
2023-03-03T22:43:55.970Z,25.40
2023-03-03T22:46:23.472Z,26.80
2023-03-03T22:48:50.458Z,25.90
2023-03-03T22:51:18.433Z,25.60
2023-03-03T22:53:45.289Z,25.27
2023-03-03T22:56:12.265Z,25.97
2023-03-03T22:58:39.393Z,25.73
2023-03-03T23:01:06.290Z,24.13
2023-03-03T23:03:33.241Z,24.50
2023-03-03T23:06:00.260Z,22.93
2023-03-03T23:08:27.750Z,23.90
2023-03-03T23:10:54.624Z,25.33
2023-03-03T23:13:21.679Z,23.60
2023-03-03T23:15:48.742Z,22.40
2023-03-03T23:18:15.782Z,21.53
2023-03-03T23:20:45.884Z,22.00
2023-03-03T23:23:13.112Z,22.20
2023-03-03T23:25:40.011Z,21.97
2023-03-03T23:28:07.616Z,22.60
2023-03-03T23:30:34.819Z,21.40
2023-03-03T23:33:01.768Z,22.13
2023-03-03T23:35:28.689Z,20.77
2023-03-03T23:37:55.656Z,21.40
2023-03-03T23:40:22.621Z,20.47
2023-03-03T23:42:49.769Z,18.17
2023-03-03T23:45:16.881Z,20.20
2023-03-03T23:47:43.884Z,19.30
2023-03-03T23:50:12.426Z,16.60
2023-03-03T23:52:39.383Z,16.50
2023-03-03T23:55:07.316Z,16.33
2023-03-03T23:57:34.323Z,15.27
